Time;durP1;ratioP1;P1;durP2;ratioP2;P2;SDS_P1;SDS_P2;PMS_P1;PMS_P2;Temp;Humidity;BMP_temperature;BMP_pressure;BME280_temperature;BME280_humidity;BME280_pressure;Samples;Min_cycle;Max_cycle;Signal;HPM_P1;HPM_P2
2023/08/19 00:00:21;;;;;;;10.40;6.07;;;;;;;26.45;45.67;101107.66;5032897;28;20386;-70
2023/08/19 00:02:47;;;;;;;9.47;6.10;;;;;;;26.42;45.72;101108.22;5032906;28;20410;-70
2023/08/19 00:05:12;;;;;;;10.85;6.38;;;;;;;26.45;45.60;101107.66;5032863;28;20808;-70
2023/08/19 00:07:38;;;;;;;9.77;6.07;;;;;;;26.44;45.54;101112.28;5032680;28;20378;-70
2023/08/19 00:10:04;;;;;;;10.77;6.20;;;;;;;26.42;45.89;101114.47;5033271;28;20779;-70
2023/08/19 00:12:30;;;;;;;9.63;5.88;;;;;;;26.42;45.60;101122.63;5032649;28;20402;-70
2023/08/19 00:14:56;;;;;;;11.57;6.20;;;;;;;26.39;45.69;101125.06;5032720;28;20481;-70
2023/08/19 00:17:23;;;;;;;9.25;6.10;;;;;;;26.30;46.02;101122.84;5032840;28;20378;-70
2023/08/19 00:19:48;;;;;;;9.65;6.07;;;;;;;26.22;46.38;101126.06;5032826;28;20495;-70
2023/08/19 00:22:14;;;;;;;13.10;6.25;;;;;;;26.21;46.39;101126.34;5032401;28;20799;-70
2023/08/19 00:24:39;;;;;;;10.23;6.30;;;;;;;26.17;46.20;101123.34;5032701;28;20379;-70
2023/08/19 00:27:05;;;;;;;10.10;6.07;;;;;;;26.21;46.21;101123.63;5032510;28;20389;-70
2023/08/19 00:29:30;;;;;;;10.17;6.10;;;;;;;26.25;46.07;101130.16;5032632;28;20490;-70
2023/08/19 00:31:56;;;;;;;11.85;6.20;;;;;;;26.31;45.79;101121.75;5032554;28;20374;-70
2023/08/19 00:34:24;;;;;;;9.48;6.18;;;;;;;26.31;45.79;101116.34;5032030;28;21509;-70
2023/08/19 00:36:49;;;;;;;11.87;6.30;;;;;;;26.34;45.58;101114.97;5032102;28;20462;-70
2023/08/19 00:39:15;;;;;;;8.53;6.00;;;;;;;26.28;45.93;101118.75;5032482;28;20412;-70
2023/08/19 00:41:40;;;;;;;7.35;5.88;;;;;;;26.24;46.04;101115.75;5032279;28;20371;-70
2023/08/19 00:44:06;;;;;;;8.63;5.93;;;;;;;26.25;45.97;101125.56;5032182;28;20532;-70
2023/08/19 00:46:33;;;;;;;9.63;6.25;;;;;;;26.23;45.71;101122.25;5032198;28;20390;-70
2023/08/19 00:48:59;;;;;;;10.45;6.40;;;;;;;26.20;45.90;101127.41;5032113;28;20397;-70
2023/08/19 00:51:26;;;;;;;8.70;5.83;;;;;;;26.18;46.12;101130.41;5031725;28;20379;-70
2023/08/19 00:53:52;;;;;;;9.57;6.35;;;;;;;26.16;46.10;101129.84;5031931;28;20794;-70
2023/08/19 00:56:18;;;;;;;9.38;5.80;;;;;;;26.20;46.08;101136.41;5032016;28;20449;-70
2023/08/19 00:58:44;;;;;;;9.20;5.82;;;;;;;26.14;45.85;101132.00;5032139;28;21244;-70
2023/08/19 01:01:10;;;;;;;8.52;5.88;;;;;;;26.19;45.94;101126.59;5014520;28;20457;-70
2023/08/19 01:03:35;;;;;;;9.68;5.90;;;;;;;26.20;46.01;101125.53;5031835;28;20871;-70
2023/08/19 01:06:45;;;;;;;10.30;5.57;;;;;;;26.20;45.88;101122.81;5031163;28;20430;-70
2023/08/19 01:09:28;;;;;;;7.05;5.68;;;;;;;26.18;46.23;101118.72;4964877;28;20407;-70
2023/08/19 01:11:57;;;;;;;9.50;5.73;;;;;;;26.13;46.41;101114.91;5030169;28;20383;-70
2023/08/19 01:14:32;;;;;;;10.83;6.33;;;;;;;26.13;46.36;101112.19;5031817;28;20886;-70
2023/08/19 01:17:01;;;;;;;11.97;6.07;;;;;;;26.07;46.84;101109.69;5031562;28;20496;-70
2023/08/19 01:19:31;;;;;;;11.23;6.00;;;;;;;26.06;47.04;101124.38;5031645;28;20468;-70
2023/08/19 01:22:05;;;;;;;10.82;5.72;;;;;;;25.88;47.36;101123.69;5031468;28;20383;-70
2023/08/19 01:24:38;;;;;;;11.80;6.23;;;;;;;25.71;47.35;101128.47;5031619;28;20429;-70
2023/08/19 01:27:05;;;;;;;13.00;5.80;;;;;;;25.44;47.97;101145.63;5031272;28;20401;-70
2023/08/19 01:29:31;;;;;;;7.65;5.60;;;;;;;25.41;47.94;101139.91;5031748;28;20375;-70
2023/08/19 01:31:57;;;;;;;8.23;5.63;;;;;;;25.44;47.87;101123.13;5031636;28;20720;-70
2023/08/19 01:34:25;;;;;;;8.03;5.93;;;;;;;25.46;47.74;101123.66;5031406;28;20393;-70
2023/08/19 01:36:58;;;;;;;9.32;5.78;;;;;;;25.56;47.72;101130.00;5031177;28;20495;-70
2023/08/19 01:39:25;;;;;;;8.32;5.60;;;;;;;25.64;47.40;101127.88;5031631;28;20462;-70
2023/08/19 01:41:51;;;;;;;9.90;5.90;;;;;;;25.56;47.62;101134.59;5031419;28;20363;-70
2023/08/19 01:44:17;;;;;;;8.63;5.80;;;;;;;25.43;47.37;101132.34;5030942;28;20810;-70
2023/08/19 01:46:43;;;;;;;8.52;5.70;;;;;;;25.48;47.22;101130.50;5031494;28;20459;-70
2023/08/19 01:49:08;;;;;;;8.57;5.73;;;;;;;25.55;47.17;101131.09;5031532;28;20383;-70
2023/08/19 01:51:34;;;;;;;11.07;6.05;;;;;;;25.64;46.85;101142.28;5031972;28;20412;-70
2023/08/19 01:53:59;;;;;;;9.33;5.83;;;;;;;25.63;46.95;101139.81;5013441;28;20390;-70
2023/08/19 01:56:25;;;;;;;9.73;5.80;;;;;;;25.59;46.81;101136.81;5030972;28;20381;-70
2023/08/19 01:58:51;;;;;;;9.88;6.18;;;;;;;25.58;47.23;101147.94;5031235;28;20392;-70
2023/08/19 02:01:16;;;;;;;8.70;6.00;;;;;;;25.54;47.33;101136.78;5031072;28;20712;-70
2023/08/19 02:03:42;;;;;;;8.68;6.00;;;;;;;25.58;47.24;101139.78;5030304;28;20458;-70
2023/08/19 02:06:08;;;;;;;13.57;6.07;;;;;;;25.56;47.04;101130.00;5030454;28;20441;-70
2023/08/19 02:08:33;;;;;;;12.63;6.15;;;;;;;25.58;46.88;101143.31;5030686;28;20371;-70
2023/08/19 02:10:59;;;;;;;9.40;6.50;;;;;;;25.46;47.25;101134.53;5030782;28;20926;-70
2023/08/19 02:13:24;;;;;;;8.90;5.70;;;;;;;25.47;47.04;101144.31;5030832;28;20363;-70
2023/08/19 02:15:50;;;;;;;10.13;6.05;;;;;;;25.47;46.79;101139.69;5030702;28;20424;-70
2023/08/19 02:18:17;;;;;;;10.33;6.50;;;;;;;25.43;47.01;101140.50;5030380;28;20456;-70
2023/08/19 02:20:47;;;;;;;10.90;6.72;;;;;;;25.25;47.21;101130.84;5030514;28;20444;-70
2023/08/19 02:23:13;;;;;;;9.40;5.80;;;;;;;25.25;47.17;101134.38;5030373;28;20398;-70
2023/08/19 02:25:38;;;;;;;12.07;6.30;;;;;;;25.22;47.08;101134.03;5030767;28;20379;-70
2023/08/19 02:28:04;;;;;;;10.20;6.30;;;;;;;25.09;47.24;101138.81;5030883;28;20844;-70
2023/08/19 02:30:31;;;;;;;9.07;6.07;;;;;;;25.06;47.25;101139.31;5030439;28;20381;-70
2023/08/19 02:32:57;;;;;;;10.82;6.22;;;;;;;24.97;47.39;101141.69;5030355;28;20383;-70
2023/08/19 02:35:22;;;;;;;11.17;5.87;;;;;;;24.86;47.44;101139.09;5030309;28;20401;-70
2023/08/19 02:37:48;;;;;;;9.55;6.20;;;;;;;24.82;47.63;101146.13;5030324;28;20379;-70
2023/08/19 02:40:13;;;;;;;10.40;6.37;;;;;;;24.75;47.84;101143.59;5030575;28;20374;-70
2023/08/19 02:42:39;;;;;;;9.60;6.40;;;;;;;24.70;47.93;101146.25;5030591;28;20422;-70
2023/08/19 02:45:06;;;;;;;10.05;6.40;;;;;;;24.68;47.80;101151.13;5030634;28;20436;-70
2023/08/19 02:47:31;;;;;;;14.50;6.78;;;;;;;24.61;48.07;101152.16;5030040;28;20481;-70
2023/08/19 02:49:57;;;;;;;10.98;6.38;;;;;;;24.53;48.27;101165.31;5016309;28;20494;-70
2023/08/19 02:52:22;;;;;;;9.60;5.70;;;;;;;24.47;48.34;101158.16;5015976;28;20390;-70
2023/08/19 02:54:48;;;;;;;10.87;5.87;;;;;;;24.41;48.35;101160.78;5030421;28;20378;-70
2023/08/19 02:57:13;;;;;;;9.32;5.72;;;;;;;24.42;48.45;101165.16;5030127;28;20378;-70
2023/08/19 02:59:39;;;;;;;9.43;5.40;;;;;;;24.41;48.27;101165.41;5022808;28;20441;-70
2023/08/19 03:02:04;;;;;;;10.53;5.87;;;;;;;24.39;48.37;101162.94;5016440;28;20395;-70
2023/08/19 03:04:30;;;;;;;10.27;5.40;;;;;;;24.38;48.33;101164.03;5012912;28;20422;-70
2023/08/19 03:06:57;;;;;;;10.13;5.55;;;;;;;24.37;48.45;101167.78;5019855;28;20576;-70
2023/08/19 03:09:23;;;;;;;7.30;5.13;;;;;;;24.42;48.42;101172.47;5012753;28;20392;-70
2023/08/19 03:11:48;;;;;;;8.82;5.93;;;;;;;24.45;48.05;101165.72;5009402;28;20398;-70
2023/08/19 03:14:14;;;;;;;9.80;5.83;;;;;;;24.50;47.98;101165.78;5010870;28;20537;-70
2023/08/19 03:16:39;;;;;;;11.50;5.60;;;;;;;24.58;47.85;101173.50;5011111;28;20860;-70
2023/08/19 03:19:05;;;;;;;9.90;5.18;;;;;;;24.49;47.97;101172.25;5014195;28;20430;-70
2023/08/19 03:21:30;;;;;;;9.10;5.50;;;;;;;24.43;48.03;101171.38;5014816;28;20463;-70
2023/08/19 03:23:56;;;;;;;8.73;5.67;;;;;;;24.52;47.93;101179.88;5014646;28;20438;-70
2023/08/19 03:26:21;;;;;;;9.60;5.10;;;;;;;24.51;47.80;101175.56;5013911;28;20384;-70
2023/08/19 03:28:47;;;;;;;10.85;5.00;;;;;;;24.51;47.91;101189.13;5013047;28;20376;-70
2023/08/19 03:31:12;;;;;;;7.53;5.27;;;;;;;24.47;47.84;101185.25;5012408;28;20848;-70
2023/08/19 03:33:38;;;;;;;9.43;5.13;;;;;;;24.34;48.12;101191.84;5012383;28;20412;-70
2023/08/19 03:36:04;;;;;;;8.80;5.07;;;;;;;24.32;48.02;101189.38;5012951;28;20419;-70
2023/08/19 03:38:30;;;;;;;9.10;4.50;;;;;;;24.32;48.30;101189.38;5013659;28;20384;-70
2023/08/19 03:40:56;;;;;;;10.93;4.90;;;;;;;24.22;48.29;101190.09;5013951;28;20373;-70
2023/08/19 03:43:21;;;;;;;8.77;4.73;;;;;;;24.23;48.21;101189.00;5013997;28;20888;-70
2023/08/19 03:45:46;;;;;;;7.27;5.03;;;;;;;24.29;48.04;101197.19;5013654;28;20386;-70
2023/08/19 03:48:12;;;;;;;8.00;5.00;;;;;;;24.33;48.20;101198.34;5013653;28;20399;-70
2023/08/19 03:50:38;;;;;;;8.67;5.30;;;;;;;24.30;48.31;101206.97;5013593;28;20373;-70
2023/08/19 03:53:04;;;;;;;7.63;4.93;;;;;;;24.25;48.21;101207.72;5013821;28;20379;-70
2023/08/19 03:55:30;;;;;;;7.57;4.97;;;;;;;24.28;48.35;101209.94;5013869;28;20369;-70
2023/08/19 03:57:56;;;;;;;7.95;4.97;;;;;;;24.32;48.24;101196.72;5013470;28;20415;-70
2023/08/19 04:00:22;;;;;;;10.90;5.50;;;;;;;24.52;47.70;101204.28;5014678;28;20380;-70
2023/08/19 04:02:48;;;;;;;10.82;6.40;;;;;;;24.59;47.86;101204.94;5032660;28;20477;-70
2023/08/19 04:05:14;;;;;;;10.32;6.75;;;;;;;24.60;47.90;101209.31;5032679;28;20406;-70
2023/08/19 04:07:39;;;;;;;12.27;6.70;;;;;;;24.60;48.32;101210.13;5031697;28;20370;-70
2023/08/19 04:10:05;;;;;;;12.90;6.22;;;;;;;24.60;48.41;101207.41;5032841;28;20378;-69
2023/08/19 04:12:31;;;;;;;10.90;6.30;;;;;;;24.69;48.17;101212.41;5033059;28;20370;-70
2023/08/19 04:14:56;;;;;;;9.40;6.00;;;;;;;24.79;48.14;101212.50;5032575;28;20382;-70
2023/08/19 04:17:22;;;;;;;12.50;5.77;;;;;;;24.82;47.82;101206.59;5033022;28;20385;-70
2023/08/19 04:19:47;;;;;;;10.00;5.88;;;;;;;24.89;47.79;101201.78;5033071;28;20500;-70
2023/08/19 04:22:14;;;;;;;10.90;6.33;;;;;;;24.99;47.69;101211.91;5032664;28;20386;-70
2023/08/19 04:24:40;;;;;;;8.52;5.78;;;;;;;24.89;47.93;101218.06;5032790;28;20461;-70
2023/08/19 04:27:06;;;;;;;8.23;5.57;;;;;;;24.88;48.04;101218.31;5032432;28;20417;-69
2023/08/19 04:29:34;;;;;;;9.68;5.40;;;;;;;24.88;48.01;101208.28;5031893;28;20529;-70
2023/08/19 04:32:03;;;;;;;9.98;5.60;;;;;;;24.97;47.78;101206.78;5032691;28;20371;-70
2023/08/19 04:34:30;;;;;;;12.05;6.10;;;;;;;24.86;48.14;101215.84;5035980;28;20374;-70
2023/08/19 04:36:55;;;;;;;8.90;5.40;;;;;;;24.88;48.10;101212.88;5036172;28;20371;-70
2023/08/19 04:39:21;;;;;;;11.13;5.20;;;;;;;24.90;47.89;101210.75;5034312;28;20385;-70
2023/08/19 04:41:47;;;;;;;7.77;5.60;;;;;;;24.92;47.83;101220.28;5032444;28;20389;-70
2023/08/19 04:44:13;;;;;;;8.55;5.80;;;;;;;25.05;47.75;101219.06;5031951;28;20410;-70
2023/08/19 04:46:38;;;;;;;10.73;6.03;;;;;;;25.16;47.70;101225.41;5032440;28;20393;-70
2023/08/19 04:49:05;;;;;;;11.75;6.75;;;;;;;25.22;47.50;101218.94;5032451;28;20461;-69
2023/08/19 04:51:32;;;;;;;9.82;7.00;;;;;;;25.36;47.17;101219.41;5014771;28;20387;-70
2023/08/19 04:53:57;;;;;;;10.63;7.10;;;;;;;25.36;46.97;101222.13;5032086;28;20379;-71
2023/08/19 04:56:23;;;;;;;11.13;7.17;;;;;;;25.45;46.89;101220.56;5032105;28;20374;-70
2023/08/19 04:58:48;;;;;;;13.80;7.73;;;;;;;25.45;47.06;101227.91;5031625;28;20370;-70
2023/08/19 05:01:14;;;;;;;9.20;6.47;;;;;;;25.49;46.86;101232.53;5031839;28;20425;-70
2023/08/19 05:03:39;;;;;;;12.90;7.27;;;;;;;25.64;46.86;101236.47;5031294;28;20902;-69
2023/08/19 05:06:05;;;;;;;10.53;6.27;;;;;;;25.80;46.47;101235.53;5031850;28;20386;-70
2023/08/19 05:08:30;;;;;;;12.73;6.10;;;;;;;25.93;46.16;101237.03;5031378;28;20379;-71
2023/08/19 05:10:56;;;;;;;10.05;5.90;;;;;;;26.04;45.98;101241.44;5031295;28;20378;-71
2023/08/19 05:13:21;;;;;;;7.67;5.60;;;;;;;26.17;45.72;101239.38;5031033;28;20374;-71
2023/08/19 05:15:47;;;;;;;6.97;5.40;;;;;;;26.44;45.23;101244.69;5031095;28;20366;-71
2023/08/19 05:18:12;;;;;;;11.40;7.00;;;;;;;26.55;45.09;101249.09;5028748;28;20394;-70
2023/08/19 05:20:38;;;;;;;7.13;5.30;;;;;;;26.65;44.98;101251.06;5030942;28;20382;-70
2023/08/19 05:23:03;;;;;;;10.37;6.37;;;;;;;26.75;45.13;101250.31;5031465;28;20394;-70
2023/08/19 05:25:29;;;;;;;8.93;6.00;;;;;;;26.76;45.45;101254.66;5031151;28;20732;-69
2023/08/19 05:27:56;;;;;;;9.38;5.82;;;;;;;26.87;45.34;101259.06;5030673;28;20386;-72
2023/08/19 05:30:22;;;;;;;9.20;5.70;;;;;;;26.93;45.54;101265.34;5031253;28;20862;-71
2023/08/19 05:32:48;;;;;;;10.43;6.07;;;;;;;27.07;45.11;101269.19;5033409;28;20445;-70
2023/08/19 05:35:13;;;;;;;10.75;6.63;;;;;;;27.13;44.98;101268.13;5033054;28;20379;-69
2023/08/19 05:37:39;;;;;;;10.70;7.03;;;;;;;27.21;44.75;101258.63;5031569;28;20378;-69
2023/08/19 05:40:05;;;;;;;8.60;6.07;;;;;;;27.32;44.91;101264.94;5030802;28;20374;-72
2023/08/19 05:42:31;;;;;;;11.27;6.63;;;;;;;27.34;44.32;101262.78;5031172;28;20370;-71
2023/08/19 05:44:56;;;;;;;13.18;6.60;;;;;;;27.35;43.98;101278.00;5031132;28;20401;-71
2023/08/19 05:47:22;;;;;;;10.13;6.03;;;;;;;27.31;43.71;101280.44;5030988;28;20839;-70
2023/08/19 05:49:47;;;;;;;11.30;7.63;;;;;;;27.38;43.75;101282.91;5030113;28;20412;-71
2023/08/19 05:52:13;;;;;;;10.03;7.87;;;;;;;27.46;43.44;101288.66;5029553;28;20851;-72
2023/08/19 05:54:38;;;;;;;12.35;8.30;;;;;;;27.56;43.58;101298.72;5039351;28;20411;-71
2023/08/19 05:57:04;;;;;;;12.63;8.07;;;;;;;27.65;43.29;101293.56;5038157;28;20388;-72
2023/08/19 05:59:29;;;;;;;10.57;7.80;;;;;;;27.76;43.41;101300.66;5036254;28;20456;-72
2023/08/19 06:01:55;;;;;;;10.43;7.40;;;;;;;27.87;43.28;101298.75;5025031;28;20486;-71
2023/08/19 06:04:20;;;;;;;10.95;6.75;;;;;;;27.95;43.25;101300.97;5012627;28;20427;-71
2023/08/19 06:06:46;;;;;;;13.23;6.63;;;;;;;28.07;43.10;101303.41;5026360;28;20393;-71
2023/08/19 06:09:11;;;;;;;10.30;6.63;;;;;;;28.12;43.10;101302.59;5029949;28;20448;-72
2023/08/19 06:11:50;;;;;;;9.57;5.67;;;;;;;28.20;43.15;101302.06;5033354;28;20418;-72
2023/08/19 06:14:16;;;;;;;11.05;5.63;;;;;;;28.26;42.71;101309.13;5030556;28;20375;-71
2023/08/19 06:16:42;;;;;;;11.20;5.67;;;;;;;28.32;42.61;101310.75;5030091;28;20869;-72
2023/08/19 06:19:08;;;;;;;16.88;6.40;;;;;;;28.36;42.67;101305.56;5029682;28;20390;-72
2023/08/19 06:21:33;;;;;;;9.27;6.00;;;;;;;28.32;42.72;101313.47;5029837;28;20382;-72
2023/08/19 06:23:59;;;;;;;13.77;6.57;;;;;;;28.36;42.59;101309.13;5029834;28;20414;-72
2023/08/19 06:26:25;;;;;;;13.13;6.73;;;;;;;28.45;42.54;101311.28;5012339;28;21052;-72
2023/08/19 06:28:51;;;;;;;14.02;6.80;;;;;;;28.59;41.90;101315.09;5012975;28;20379;-72
2023/08/19 06:31:17;;;;;;;10.68;5.93;;;;;;;28.64;41.88;101314.28;5022431;28;20705;-71
2023/08/19 06:33:43;;;;;;;11.47;6.60;;;;;;;28.80;41.35;101318.59;5020075;28;20426;-71
2023/08/19 06:36:11;;;;;;;9.80;6.22;;;;;;;28.81;41.17;101322.13;5022895;28;20378;-72
2023/08/19 06:38:41;;;;;;;12.70;6.40;;;;;;;28.83;40.75;101319.94;5022123;28;20406;-72
2023/08/19 06:41:10;;;;;;;9.07;5.97;;;;;;;28.94;40.72;101319.63;5023876;28;20500;-72
2023/08/19 06:43:40;;;;;;;9.37;5.50;;;;;;;29.04;40.27;101316.03;5012555;28;20451;-72
2023/08/19 06:46:06;;;;;;;11.00;5.55;;;;;;;28.87;40.15;101315.56;5009740;28;20475;-72
2023/08/19 06:48:33;;;;;;;7.88;5.50;;;;;;;29.03;40.68;101319.03;5010799;28;20395;-71
2023/08/19 06:51:00;;;;;;;11.87;6.00;;;;;;;29.12;40.49;101315.47;5003284;28;20431;-72
2023/08/19 06:53:26;;;;;;;12.25;5.80;;;;;;;29.30;40.11;101307.78;5012974;28;20740;-72
2023/08/19 06:56:10;;;;;;;9.02;6.18;;;;;;;29.41;39.69;101316.72;5014508;28;20844;-72
2023/08/19 06:58:43;;;;;;;8.77;5.28;;;;;;;29.58;39.24;101313.59;5015075;28;20946;-71
2023/08/19 07:01:17;;;;;;;11.07;6.00;;;;;;;29.63;39.06;101316.28;5014805;28;20387;-71
2023/08/19 07:03:44;;;;;;;9.35;5.45;;;;;;;29.69;38.84;101324.19;5014467;28;20411;-73
2023/08/19 07:06:14;;;;;;;13.30;8.27;;;;;;;29.69;38.61;101323.34;5014765;28;20392;-71
2023/08/19 07:08:40;;;;;;;9.02;6.22;;;;;;;29.76;38.70;101323.88;5014409;28;20714;-71
2023/08/19 07:11:06;;;;;;;6.23;4.83;;;;;;;29.81;38.65;101332.03;5014849;28;20391;-71
2023/08/19 07:13:31;;;;;;;8.73;5.20;;;;;;;29.85;38.28;101327.63;5014622;28;20380;-71
2023/08/19 07:16:02;;;;;;;8.90;5.00;;;;;;;29.92;38.15;101328.09;5014542;28;20526;-72
2023/08/19 07:18:33;;;;;;;9.10;5.07;;;;;;;29.93;38.24;101332.50;5013521;28;20487;-71
2023/08/19 07:21:00;;;;;;;11.27;5.03;;;;;;;30.11;38.06;101327.44;5014499;28;20387;-72
2023/08/19 07:23:27;;;;;;;9.00;5.20;;;;;;;30.39;38.18;101330.47;5013828;28;20400;-71
2023/08/19 07:25:53;;;;;;;8.15;4.65;;;;;;;30.54;37.68;101326.75;5015103;28;20418;-73
2023/08/19 07:28:23;;;;;;;7.03;5.00;;;;;;;30.64;37.36;101332.94;5015871;28;20861;-71
2023/08/19 07:30:48;;;;;;;8.07;4.35;;;;;;;30.60;36.97;101331.09;5014597;28;20382;-72
2023/08/19 07:33:14;;;;;;;9.37;4.50;;;;;;;30.77;36.97;101336.88;5013981;28;20471;-73
2023/08/19 07:35:39;;;;;;;10.27;4.70;;;;;;;30.88;36.80;101332.13;5013951;28;20452;-72
2023/08/19 07:38:06;;;;;;;8.57;4.67;;;;;;;30.95;36.67;101338.09;5013702;28;20753;-72
2023/08/19 07:40:32;;;;;;;5.13;4.35;;;;;;;30.99;36.59;101330.09;5014084;28;20474;-71
2023/08/19 07:42:57;;;;;;;7.77;4.87;;;;;;;31.12;35.87;101329.41;5013626;28;20803;-72
2023/08/19 07:45:23;;;;;;;7.43;4.80;;;;;;;31.17;35.82;101326.59;5013846;28;21500;-72
2023/08/19 07:47:48;;;;;;;8.93;4.97;;;;;;;31.33;35.83;101329.09;5013770;28;20384;-72
2023/08/19 07:50:14;;;;;;;7.85;4.90;;;;;;;31.40;35.39;101326.81;5013929;28;20385;-71
2023/08/19 07:52:39;;;;;;;10.07;5.00;;;;;;;31.55;35.02;101317.59;5013373;28;20928;-72
2023/08/19 07:55:05;;;;;;;10.60;4.77;;;;;;;31.51;35.30;101319.28;5013342;28;20380;-72
2023/08/19 07:57:31;;;;;;;6.97;4.70;;;;;;;31.66;35.31;101316.34;5013834;28;20376;-72
2023/08/19 07:59:56;;;;;;;7.63;4.57;;;;;;;31.77;34.88;101315.06;5013467;28;20392;-72
2023/08/19 08:02:22;;;;;;;10.63;5.10;;;;;;;31.94;34.66;101316.41;5012986;28;20463;-72
2023/08/19 08:04:47;;;;;;;7.75;5.10;;;;;;;32.05;34.56;101322.56;5012955;28;20422;-72
2023/08/19 08:07:13;;;;;;;7.22;4.70;;;;;;;32.06;33.51;101319.53;5012965;28;20864;-72
2023/08/19 08:09:38;;;;;;;8.43;4.60;;;;;;;32.14;33.07;101321.59;5013351;28;20450;-72
2023/08/19 08:12:04;;;;;;;10.77;5.10;;;;;;;32.34;33.24;101308.59;5013314;28;20395;-72
2023/08/19 08:14:30;;;;;;;9.07;4.45;;;;;;;32.38;32.81;101307.72;5013164;28;20907;-72
2023/08/19 08:16:56;;;;;;;6.63;4.57;;;;;;;32.41;32.69;101302.72;5013414;28;20384;-71
2023/08/19 08:19:28;;;;;;;6.82;3.95;;;;;;;32.46;32.64;101303.44;5013171;28;20855;-72
2023/08/19 08:21:54;;;;;;;7.22;4.15;;;;;;;32.57;32.67;101304.06;5012607;28;20392;-72
2023/08/19 08:24:20;;;;;;;7.17;4.57;;;;;;;32.73;32.64;101304.59;5013057;28;20494;-72
2023/08/19 08:29:30;;;;;;;7.95;4.13;;;;;;;32.57;31.81;101313.13;5013146;28;20462;-71
2023/08/19 08:31:56;;;;;;;8.50;4.10;;;;;;;32.67;31.82;101309.38;5012793;28;20392;-72
2023/08/19 08:34:21;;;;;;;8.27;4.10;;;;;;;32.76;31.89;101293.81;5013238;28;20463;-71
2023/08/19 08:36:47;;;;;;;5.53;3.90;;;;;;;32.88;31.65;101292.47;5012496;28;20380;-71
2023/08/19 08:39:14;;;;;;;8.00;4.30;;;;;;;32.96;31.23;101287.06;5013002;28;20372;-71
2023/08/19 08:41:39;;;;;;;6.28;4.38;;;;;;;32.93;31.37;101282.19;5012526;28;20491;-73
2023/08/19 08:44:09;;;;;;;8.43;4.18;;;;;;;33.02;30.70;101285.03;5012565;28;20897;-72
2023/08/19 08:46:36;;;;;;;6.60;3.65;;;;;;;33.17;30.85;101275.69;5012656;28;20856;-71
2023/08/19 08:49:03;;;;;;;6.30;3.50;;;;;;;33.26;30.82;101273.81;5012382;28;20404;-72
2023/08/19 08:51:29;;;;;;;5.45;3.58;;;;;;;33.33;30.86;101273.38;5012265;28;20837;-72
2023/08/19 08:53:59;;;;;;;5.72;3.53;;;;;;;33.30;30.64;101265.78;5012412;28;20453;-72
2023/08/19 08:56:24;;;;;;;5.22;3.47;;;;;;;33.38;30.21;101272.44;5012707;28;20419;-71
2023/08/19 08:58:51;;;;;;;6.30;3.60;;;;;;;33.41;30.50;101264.41;5012341;28;20745;-71
2023/08/19 09:01:17;;;;;;;6.63;3.30;;;;;;;33.42;29.86;101262.44;5012410;28;20383;-72
2023/08/19 09:03:45;;;;;;;5.13;3.55;;;;;;;33.42;29.88;101260.53;5012102;28;20491;-73
2023/08/19 09:06:15;;;;;;;5.70;3.38;;;;;;;33.46;29.43;101256.03;5012040;28;20868;-71
2023/08/19 09:09:02;;;;;;;7.00;3.30;;;;;;;33.56;29.53;101256.91;5012246;28;20380;-72
2023/08/19 09:11:29;;;;;;;6.90;3.15;;;;;;;33.41;29.59;101256.16;5012192;28;20431;-72
2023/08/19 09:14:07;;;;;;;5.55;3.15;;;;;;;33.37;28.67;101252.41;5011686;28;20384;-73
2023/08/19 09:16:33;;;;;;;5.10;3.28;;;;;;;33.33;29.29;101243.97;5011869;28;20392;-71
2023/08/19 09:18:58;;;;;;;7.63;3.40;;;;;;;33.36;29.21;101238.97;5003938;28;20403;-73
2023/08/19 09:21:24;;;;;;;7.47;3.40;;;;;;;33.46;29.52;101247.78;5011960;28;20854;-72
2023/08/19 09:23:50;;;;;;;5.35;3.47;;;;;;;33.48;29.25;101242.78;5011917;28;20400;-72
2023/08/19 09:26:17;;;;;;;4.00;2.90;;;;;;;33.56;28.70;101241.22;5011748;28;20845;-72
2023/08/19 09:28:42;;;;;;;3.63;3.17;;;;;;;33.63;28.20;101240.78;5011669;28;20450;-72
2023/08/19 09:31:21;;;;;;;6.72;3.42;;;;;;;33.37;28.59;101227.69;5012004;28;20485;-72
2023/08/19 09:33:48;;;;;;;5.35;3.30;;;;;;;33.38;28.32;101231.22;5011361;28;20368;-73
2023/08/19 09:36:14;;;;;;;4.80;3.00;;;;;;;33.48;28.35;101236.47;5011703;28;20395;-72
2023/08/19 09:38:40;;;;;;;8.77;3.10;;;;;;;33.53;28.44;101237.16;5011817;28;20372;-72
2023/08/19 09:41:11;;;;;;;7.10;3.20;;;;;;;33.25;28.62;101241.16;5011637;28;20380;-71
2023/08/19 09:43:39;;;;;;;5.68;3.30;;;;;;;33.17;28.88;101222.66;5011504;28;20400;-72
2023/08/19 09:46:05;;;;;;;5.60;3.05;;;;;;;33.40;28.45;101231.72;5011590;28;20815;-71
2023/08/19 09:48:31;;;;;;;6.77;3.30;;;;;;;33.39;28.29;101222.69;5011188;28;20456;-72
2023/08/19 09:50:56;;;;;;;5.10;3.40;;;;;;;33.19;28.94;101229.47;5011436;28;20380;-72
2023/08/19 09:53:22;;;;;;;4.93;3.23;;;;;;;33.36;28.72;101217.00;5011467;28;20404;-72
2023/08/19 09:55:49;;;;;;;9.18;3.38;;;;;;;33.38;28.35;101231.22;5012117;28;20399;-72
2023/08/19 09:58:15;;;;;;;5.90;3.40;;;;;;;33.28;28.88;101233.09;5015805;28;20486;-71
2023/08/19 10:00:42;;;;;;;4.65;3.15;;;;;;;33.28;28.58;101224.84;5013401;28;20428;-72
2023/08/19 10:03:08;;;;;;;4.82;3.10;;;;;;;33.45;28.37;101220.59;5016442;28;20418;-72
2023/08/19 10:05:41;;;;;;;5.75;3.10;;;;;;;33.52;28.36;101218.22;5018991;28;20424;-72
2023/08/19 10:08:13;;;;;;;4.65;3.00;;;;;;;33.45;28.52;101220.59;5033367;28;23067;-72
2023/08/19 10:10:42;;;;;;;4.43;2.53;;;;;;;33.48;28.32;101222.75;5020072;28;20403;-72
2023/08/19 10:13:10;;;;;;;6.18;2.97;;;;;;;33.44;28.25;101216.22;5027681;28;20409;-72
2023/08/19 10:15:38;;;;;;;6.45;3.17;;;;;;;33.48;28.32;101214.50;5027861;28;20385;-73
2023/08/19 10:18:14;;;;;;;4.55;2.90;;;;;;;33.56;28.29;101210.16;5027980;28;20481;-72
2023/08/19 10:20:41;;;;;;;6.32;2.97;;;;;;;33.52;28.48;101212.72;5029154;28;20370;-72
2023/08/19 10:23:10;;;;;;;4.22;2.80;;;;;;;33.44;28.21;101210.72;5030782;28;20424;-72
2023/08/19 10:25:39;;;;;;;6.32;2.85;;;;;;;33.44;27.89;101214.31;5030522;28;20390;-72
2023/08/19 10:28:13;;;;;;;6.40;3.10;;;;;;;33.65;27.76;101208.28;5030635;28;20386;-71
2023/08/19 10:30:39;;;;;;;5.45;3.20;;;;;;;33.74;27.90;101206.41;5030554;28;20382;-73
2023/08/19 10:33:32;;;;;;;6.45;2.65;;;;;;;33.77;27.68;101202.25;5012962;28;20370;-72
2023/08/19 10:35:58;;;;;;;6.10;2.90;;;;;;;33.92;27.45;101204.56;5030776;28;20394;-73
2023/08/19 10:38:24;;;;;;;6.72;2.88;;;;;;;34.05;27.54;101200.91;5030861;28;20394;-71
2023/08/19 10:41:05;;;;;;;4.43;2.97;;;;;;;34.09;27.99;101190.09;5030403;28;20870;-73
2023/08/19 10:44:00;;;;;;;9.57;2.90;;;;;;;34.02;27.91;101195.25;5030439;28;20398;-72
2023/08/19 10:46:33;;;;;;;6.13;3.00;;;;;;;34.07;27.83;101190.41;5030166;28;20366;-73
2023/08/19 10:48:59;;;;;;;6.22;3.03;;;;;;;34.08;27.73;101194.75;5030304;28;20389;-71
2023/08/19 10:51:57;;;;;;;5.13;2.85;;;;;;;34.08;27.70;101180.19;5030191;28;20866;-72
2023/08/19 10:54:49;;;;;;;4.20;2.90;;;;;;;34.03;27.80;101186.69;5030646;28;20870;-72
2023/08/19 10:57:22;;;;;;;6.45;2.88;;;;;;;34.14;27.25;101191.88;5028167;28;20724;-72
2023/08/19 10:59:56;;;;;;;6.03;2.90;;;;;;;34.19;27.53;101183.50;5030431;28;20379;-72
2023/08/19 11:02:22;;;;;;;4.38;2.95;;;;;;;34.31;27.66;101180.97;5030315;28;20440;-72
2023/08/19 11:04:50;;;;;;;5.87;3.00;;;;;;;34.26;27.41;101190.16;5030232;28;20414;-72
2023/08/19 11:07:16;;;;;;;8.52;3.00;;;;;;;34.34;27.39;101182.25;5030190;28;20375;-73
2023/08/19 11:09:44;;;;;;;5.53;2.80;;;;;;;34.39;27.42;101185.66;5030447;28;20443;-72
2023/08/19 11:12:11;;;;;;;5.38;2.67;;;;;;;34.31;27.23;101188.41;5030305;28;20414;-72
2023/08/19 11:14:38;;;;;;;6.17;3.40;;;;;;;34.25;27.20;101184.97;5012433;28;20383;-73
2023/08/19 11:17:03;;;;;;;5.90;2.80;;;;;;;34.41;27.07;101179.84;5030196;28;20863;-71
2023/08/19 11:19:31;;;;;;;7.30;2.95;;;;;;;34.42;27.12;101181.47;5030061;28;20437;-72
2023/08/19 11:21:57;;;;;;;6.35;2.83;;;;;;;34.32;26.81;101181.75;5030055;28;20778;-72
2023/08/19 11:24:36;;;;;;;3.95;2.88;;;;;;;34.26;27.14;101184.66;5030072;28;20414;-72